ESSP/NRK METAR and TAF weather

Enter ICAO airport designator
Station Type Date Time Source
ESSP METAR 2019/12/10 03:20 UTC NOAA

ESSP 100320Z AUTO 33010KT 9999 NCD M02/M03 Q1006


Station Type Date Time Source
ESSP Decoded METAR 2019/12/10 03:20 UTC NOAA

Norrkoping, Sweden (ESSP) 58-35N 016-09E 0M
Dec 09, 2019 - 10:20 PM EST / 2019.12.10 0320 UTC
Wind: from the NNW (330 degrees) at 12 MPH (10 KT):0
Visibility: greater than 7 mile(s):0
Temperature: 28 F (-2 C)
Windchill: 17 F (-8 C):1
Dew Point: 26 F (-3 C)
Relative Humidity: 92%
Pressure (altimeter): 29.71 in. Hg (1006 hPa)
ob: ESSP 100320Z AUTO 33010KT 9999 NCD M02/M03 Q1006
cycle: 3

Station Type Date Time Source
ESSP TAF 2018/01/01 02:31 UTC NOAA

TAF ESSP 010130Z 0102/0206 16002KT 9999 BKN004 PROB40 0102/0106 4000 BR SCT004

Example: see airport list